createdAt,value
2023-02-01T00:02:16.597Z,99637.13
2023-02-01T00:04:43.477Z,99648.09
2023-02-01T00:07:13.273Z,99643.09
2023-02-01T00:09:43.418Z,99638.09
2023-02-01T00:12:10.820Z,99638.38
2023-02-01T00:14:39.641Z,99633.34
2023-02-01T00:17:07.793Z,99618.91
2023-02-01T00:19:35.009Z,99615.19
2023-02-01T00:22:02.250Z,99617.13
2023-02-01T00:24:29.284Z,99606.69
2023-02-01T00:26:56.848Z,99615.75
2023-02-01T00:29:23.835Z,99595.84
2023-02-01T00:31:53.749Z,99619.28
2023-02-01T00:34:23.286Z,99619.50
2023-02-01T00:36:53.539Z,99627.25
2023-02-01T00:39:20.484Z,99635.00
2023-02-01T00:41:50.025Z,99649.19
2023-02-01T00:44:16.980Z,99643.91
2023-02-01T00:46:44.272Z,99627.19
2023-02-01T00:49:11.247Z,99636.91
2023-02-01T00:51:38.602Z,99636.84
2023-02-01T00:54:08.036Z,99652.09
2023-02-01T00:56:35.375Z,99633.34
2023-02-01T00:59:02.241Z,99656.31
2023-02-01T01:01:32.240Z,99657.28
2023-02-01T01:03:59.902Z,99662.97
2023-02-01T01:06:31.662Z,99670.63
2023-02-01T01:09:00.118Z,99676.19
2023-02-01T01:11:29.305Z,99686.41
2023-02-01T01:13:57.008Z,99673.47
2023-02-01T01:16:25.867Z,99677.69
2023-02-01T01:18:53.311Z,99672.00
2023-02-01T01:21:20.590Z,99681.75
2023-02-01T01:23:48.059Z,99685.19
2023-02-01T01:26:17.157Z,99673.88
2023-02-01T01:28:44.257Z,99676.31
2023-02-01T01:31:12.560Z,99666.88
2023-02-01T01:33:39.523Z,99667.09
2023-02-01T01:36:12.247Z,99661.25
2023-02-01T01:38:39.670Z,99665.56
2023-02-01T01:41:07.212Z,99646.38
2023-02-01T01:43:51.171Z,99651.09
2023-02-01T01:46:23.015Z,99656.03
2023-02-01T01:49:10.982Z,99652.25
2023-02-01T01:51:58.385Z,99648.31
2023-02-01T01:54:34.180Z,99654.47
2023-02-01T01:57:15.830Z,99650.28
2023-02-01T01:59:47.049Z,99652.63
2023-02-01T02:02:14.275Z,99662.63
2023-02-01T02:04:41.144Z,99650.44
2023-02-01T02:07:12.781Z,99656.19
2023-02-01T02:09:45.466Z,99647.19
2023-02-01T02:12:15.515Z,99645.97
2023-02-01T02:14:42.864Z,99650.50
2023-02-01T02:17:28.783Z,99653.31
2023-02-01T02:19:55.615Z,99660.84
2023-02-01T02:22:44.996Z,99667.91
2023-02-01T02:25:21.204Z,99671.19
2023-02-01T02:27:48.386Z,99650.25
2023-02-01T02:30:17.615Z,99653.00
2023-02-01T02:32:48.095Z,99673.44
2023-02-01T02:35:21.237Z,99683.72
2023-02-01T02:38:03.846Z,99692.53
2023-02-01T02:40:38.850Z,99697.03
2023-02-01T02:43:40.416Z,99695.53
2023-02-01T02:46:29.867Z,99700.25
2023-02-01T02:49:10.763Z,99704.03
2023-02-01T02:51:56.428Z,99698.53
2023-02-01T02:54:43.877Z,99697.03
2023-02-01T02:57:31.747Z,99695.34
2023-02-01T03:00:20.354Z,99692.84
2023-02-01T03:03:07.047Z,99696.81
2023-02-01T03:05:35.986Z,99693.59
2023-02-01T03:08:04.756Z,99687.34
2023-02-01T03:10:50.780Z,99691.63
2023-02-01T03:13:36.589Z,99691.81
2023-02-01T03:16:04.491Z,99701.03
2023-02-01T03:18:32.128Z,99706.50
2023-02-01T03:21:00.580Z,99706.25
2023-02-01T03:23:30.015Z,99704.72
2023-02-01T03:26:00.863Z,99705.69
2023-02-01T03:28:29.118Z,99714.41
2023-02-01T03:30:56.542Z,99706.09
2023-02-01T03:33:26.005Z,99703.00
2023-02-01T03:36:02.812Z,99704.72
2023-02-01T03:38:48.775Z,99698.97
2023-02-01T03:41:25.030Z,99704.44
2023-02-01T03:43:55.328Z,99696.50
2023-02-01T03:46:34.804Z,99691.78
2023-02-01T03:49:04.512Z,99707.97
2023-02-01T03:51:32.919Z,99713.25
2023-02-01T03:54:00.660Z,99710.53
2023-02-01T03:56:28.902Z,99714.31
2023-02-01T03:59:01.818Z,99710.53
2023-02-01T04:01:34.256Z,99726.00
2023-02-01T04:04:04.214Z,99716.78
2023-02-01T04:06:33.110Z,99719.59
2023-02-01T04:09:03.727Z,99714.81
2023-02-01T04:11:33.185Z,99715.56
2023-02-01T04:14:05.290Z,99726.28
2023-02-01T04:16:33.008Z,99720.56
2023-02-01T04:19:02.491Z,99713.34
2023-02-01T04:21:29.955Z,99712.88
2023-02-01T04:23:59.204Z,99715.28
2023-02-01T04:26:26.439Z,99717.28
2023-02-01T04:28:53.861Z,99702.59
2023-02-01T04:31:26.814Z,99699.44
2023-02-01T04:33:54.591Z,99699.44
2023-02-01T04:36:23.285Z,99692.94
2023-02-01T04:38:50.818Z,99706.94
2023-02-01T04:41:20.989Z,99692.25
2023-02-01T04:43:48.365Z,99685.56
2023-02-01T04:46:15.924Z,99677.13
2023-02-01T04:48:43.109Z,99682.56
2023-02-01T04:51:13.733Z,99671.84
2023-02-01T04:53:40.659Z,99682.56
2023-02-01T04:56:10.186Z,99680.56
2023-02-01T04:58:37.272Z,99678.31
2023-02-01T05:01:07.730Z,99673.59
2023-02-01T05:03:34.738Z,99677.34
2023-02-01T05:06:02.083Z,99672.63
2023-02-01T05:08:29.929Z,99666.09
2023-02-01T05:10:57.330Z,99662.84
2023-02-01T05:13:43.368Z,99664.09
2023-02-01T05:16:10.679Z,99674.38
2023-02-01T05:18:40.144Z,99673.69
2023-02-01T05:21:07.387Z,99673.47
2023-02-01T05:23:54.261Z,99664.25
2023-02-01T05:26:21.539Z,99666.28
2023-02-01T05:28:48.427Z,99659.53
2023-02-01T05:31:15.761Z,99669.28
2023-02-01T05:33:42.691Z,99666.06
2023-02-01T05:36:09.899Z,99664.31
2023-02-01T05:38:36.911Z,99659.88
2023-02-01T05:41:06.336Z,99651.63
2023-02-01T05:43:33.246Z,99649.66
2023-02-01T05:46:00.533Z,99650.13
2023-02-01T05:48:29.682Z,99647.13
2023-02-01T05:50:59.195Z,99640.88
2023-02-01T05:53:26.148Z,99642.91
2023-02-01T05:55:53.503Z,99643.69
2023-02-01T05:58:20.634Z,99640.88
2023-02-01T06:00:48.267Z,99649.59
2023-02-01T06:03:15.173Z,99652.63
2023-02-01T06:05:44.678Z,99657.34
2023-02-01T06:08:12.469Z,99667.56
2023-02-01T06:10:39.638Z,99656.78
2023-02-01T06:13:06.523Z,99662.63
2023-02-01T06:15:33.745Z,99659.09
2023-02-01T06:18:00.601Z,99661.38
2023-02-01T06:20:27.827Z,99658.63
2023-02-01T06:22:54.820Z,99670.22
2023-02-01T06:25:22.445Z,99662.50
2023-02-01T06:27:49.485Z,99664.56
2023-02-01T06:30:16.929Z,99663.78
2023-02-01T06:32:45.382Z,99662.31
2023-02-01T06:35:17.132Z,99672.09
2023-02-01T06:37:46.509Z,99667.66
2023-02-01T06:40:13.801Z,99673.19
2023-02-01T06:42:40.721Z,99681.53
2023-02-01T06:45:08.816Z,99683.25
2023-02-01T06:47:38.153Z,99684.50
2023-02-01T06:50:05.778Z,99699.19
2023-02-01T06:52:36.413Z,99691.88
2023-02-01T06:55:06.265Z,99686.81
2023-02-01T06:57:35.312Z,99676.06
2023-02-01T07:00:04.073Z,99669.06
2023-02-01T07:02:31.018Z,99683.06
2023-02-01T07:04:58.214Z,99687.81
2023-02-01T07:07:25.170Z,99685.34
2023-02-01T07:09:52.532Z,99689.84
2023-02-01T07:12:20.298Z,99680.16
2023-02-01T07:14:47.502Z,99684.91
2023-02-01T07:17:14.346Z,99678.63
2023-02-01T07:19:41.699Z,99675.47
2023-02-01T07:22:08.726Z,99687.00
2023-02-01T07:24:36.285Z,99670.00
2023-02-01T07:27:03.235Z,99679.81
2023-02-01T07:29:30.490Z,99683.63
2023-02-01T07:31:57.418Z,99674.94
2023-02-01T07:34:25.428Z,99694.19
2023-02-01T07:36:52.579Z,99684.69
2023-02-01T07:39:19.996Z,99695.94
2023-02-01T07:41:47.240Z,99687.16
2023-02-01T07:44:14.566Z,99692.91
2023-02-01T07:46:41.584Z,99681.97
2023-02-01T07:49:08.772Z,99677.25
2023-02-01T07:51:38.101Z,99674.72
2023-02-01T07:54:08.436Z,99686.72
2023-02-01T07:56:35.551Z,99687.50
2023-02-01T07:59:04.985Z,99678.50
2023-02-01T08:01:32.164Z,99672.78
2023-02-01T08:04:00.504Z,99676.75
2023-02-01T08:06:29.651Z,99677.78
2023-02-01T08:08:56.894Z,99665.09
2023-02-01T08:11:24.499Z,99670.34
2023-02-01T08:13:52.406Z,99660.38
2023-02-01T08:16:20.312Z,99653.16
2023-02-01T08:18:50.201Z,99658.66
2023-02-01T08:21:18.509Z,99663.44
2023-02-01T08:23:45.837Z,99657.00
2023-02-01T08:26:20.377Z,99660.50
2023-02-01T08:28:53.254Z,99665.53
2023-02-01T08:31:23.988Z,99661.28
2023-02-01T08:33:52.389Z,99648.56
2023-02-01T08:36:19.640Z,99648.56
2023-02-01T08:38:47.024Z,99652.81
2023-02-01T08:41:15.596Z,99639.59
2023-02-01T08:43:43.579Z,99640.84
2023-02-01T08:46:11.458Z,99635.09
2023-02-01T08:48:42.175Z,99624.84
2023-02-01T08:51:10.877Z,99629.59
2023-02-01T08:53:42.322Z,99627.59
2023-02-01T08:56:13.175Z,99631.84
2023-02-01T08:58:40.504Z,99640.84
2023-02-01T09:01:08.898Z,99639.84
2023-02-01T09:03:36.460Z,99641.31
2023-02-01T09:06:04.368Z,99642.81
2023-02-01T09:08:35.082Z,99645.09
2023-02-01T09:11:03.558Z,99664.59
2023-02-01T09:13:34.782Z,99653.09
2023-02-01T09:16:02.260Z,99666.09
2023-02-01T09:18:29.532Z,99656.78
2023-02-01T09:20:56.477Z,99642.94
2023-02-01T09:23:23.845Z,99642.16
2023-02-01T09:25:53.361Z,99635.91
2023-02-01T09:28:20.957Z,99634.38
2023-02-01T09:30:48.089Z,99630.63
2023-02-01T09:33:15.541Z,99623.63
2023-02-01T09:35:44.941Z,99621.91
2023-02-01T09:38:12.298Z,99612.13
2023-02-01T09:40:43.032Z,99617.88
2023-02-01T09:43:13.055Z,99617.44
2023-02-01T09:45:58.874Z,99614.44
2023-02-01T09:48:31.109Z,99604.44
2023-02-01T09:50:59.187Z,99599.66
2023-02-01T09:53:26.391Z,99605.94
2023-02-01T09:55:56.405Z,99602.69
2023-02-01T09:58:28.583Z,99593.69
2023-02-01T10:00:59.628Z,99587.44
2023-02-01T10:03:31.282Z,99589.69
2023-02-01T10:05:58.288Z,99573.19
2023-02-01T10:08:28.655Z,99574.78
2023-02-01T10:11:02.116Z,99574.63
2023-02-01T10:13:55.697Z,99573.41
2023-02-01T10:16:24.921Z,99581.19
2023-02-01T10:18:58.289Z,99582.69
2023-02-01T10:21:42.692Z,99570.94
2023-02-01T10:24:17.958Z,99577.91
2023-02-01T10:27:04.060Z,99575.97
2023-02-01T10:29:35.751Z,99572.19
2023-02-01T10:32:02.916Z,99573.94
2023-02-01T10:34:35.298Z,99583.22
2023-02-01T10:37:02.214Z,99571.19
2023-02-01T10:39:29.876Z,99564.66
2023-02-01T10:41:57.296Z,99561.69
2023-02-01T10:44:29.704Z,99551.91
2023-02-01T10:46:59.107Z,99569.91
2023-02-01T10:49:47.163Z,99568.94
2023-02-01T10:52:38.070Z,99563.66
2023-02-01T10:55:24.126Z,99558.41
2023-02-01T10:57:58.794Z,99571.13
2023-02-01T11:00:26.943Z,99569.88
2023-02-01T11:02:54.554Z,99565.63
2023-02-01T11:05:23.288Z,99550.88
2023-02-01T11:07:51.401Z,99567.88
2023-02-01T11:10:37.593Z,99564.34
2023-02-01T11:13:05.259Z,99564.59
2023-02-01T11:15:32.686Z,99565.56
2023-02-01T11:18:09.066Z,99546.81
2023-02-01T11:20:40.710Z,99554.34
2023-02-01T11:23:14.519Z,99545.34
2023-02-01T11:25:48.782Z,99554.78
2023-02-01T11:28:16.051Z,99537.25
2023-02-01T11:30:46.253Z,99552.72
2023-02-01T11:33:15.647Z,99554.19
2023-02-01T11:35:43.925Z,99559.16
2023-02-01T11:38:31.401Z,99558.91
2023-02-01T11:41:22.180Z,99561.31
2023-02-01T11:43:56.860Z,99562.28
2023-02-01T11:46:31.039Z,99559.03
2023-02-01T11:49:14.330Z,99557.66
2023-02-01T11:51:49.258Z,99562.53
2023-02-01T11:54:21.601Z,99557.41
2023-02-01T11:57:01.089Z,99565.88
2023-02-01T11:59:56.350Z,99567.53
2023-02-01T12:02:36.943Z,99560.56
2023-02-01T12:05:12.994Z,99565.50
2023-02-01T12:07:49.526Z,99559.06
2023-02-01T12:10:28.091Z,99563.78
2023-02-01T12:13:07.455Z,99558.09
2023-02-01T12:15:48.415Z,99558.41
2023-02-01T12:18:22.672Z,99546.53
2023-02-01T12:21:04.661Z,99549.22
2023-02-01T12:23:36.880Z,99546.47
2023-02-01T12:26:23.817Z,99536.06
2023-02-01T12:29:12.697Z,99544.38
2023-02-01T12:31:39.694Z,99539.59
2023-02-01T12:34:09.665Z,99530.59
2023-02-01T12:36:42.753Z,99530.31
2023-02-01T12:39:22.813Z,99519.28
2023-02-01T12:42:03.001Z,99495.50
2023-02-01T12:44:30.573Z,99516.78
2023-02-01T12:46:59.991Z,99509.53
2023-02-01T12:49:36.367Z,99508.75
2023-02-01T12:52:06.144Z,99503.53
2023-02-01T12:54:40.183Z,99498.84
2023-02-01T12:57:16.249Z,99495.84
2023-02-01T12:59:47.471Z,99494.56
2023-02-01T13:02:23.375Z,99487.97
2023-02-01T13:04:53.244Z,99489.41
2023-02-01T13:07:26.741Z,99488.88
2023-02-01T13:10:00.426Z,99484.16
2023-02-01T13:12:32.170Z,99483.41
2023-02-01T13:15:04.757Z,99476.66
2023-02-01T13:17:34.699Z,99485.19
2023-02-01T13:20:05.134Z,99470.66
2023-02-01T13:22:52.118Z,99468.16
2023-02-01T13:25:33.236Z,99465.66
2023-02-01T13:28:04.372Z,99461.88
2023-02-01T13:30:38.019Z,99460.38
2023-02-01T13:33:54.061Z,99453.84
2023-02-01T13:36:37.266Z,99457.38
2023-02-01T13:39:21.059Z,99448.38
2023-02-01T13:42:00.299Z,99446.88
2023-02-01T13:44:32.160Z,99449.88
2023-02-01T13:47:00.844Z,99447.13
2023-02-01T13:49:29.963Z,99436.56
2023-02-01T13:51:58.380Z,99439.81
2023-02-01T13:54:33.680Z,99449.81
2023-02-01T13:57:04.278Z,99449.81
2023-02-01T13:59:37.348Z,99447.31
2023-02-01T14:02:23.489Z,99450.06
2023-02-01T14:04:51.392Z,99458.34
2023-02-01T14:07:19.800Z,99461.63
2023-02-01T14:09:46.763Z,99464.38
2023-02-01T14:12:32.879Z,99463.66
2023-02-01T14:15:18.184Z,99464.38
2023-02-01T14:17:45.968Z,99466.44
2023-02-01T14:20:32.099Z,99471.19
2023-02-01T14:23:04.478Z,99458.72
2023-02-01T14:25:34.768Z,99469.72
2023-02-01T14:28:02.536Z,99465.00
2023-02-01T14:30:29.468Z,99459.47
2023-02-01T14:32:56.737Z,99456.00
2023-02-01T14:35:26.911Z,99473.03
2023-02-01T14:37:59.604Z,99470.03
2023-02-01T14:40:28.666Z,99466.03
2023-02-01T14:42:58.036Z,99475.81
2023-02-01T14:45:28.812Z,99483.81
2023-02-01T14:48:08.645Z,99483.06
2023-02-01T14:50:41.352Z,99492.09
2023-02-01T14:53:12.381Z,99495.09
2023-02-01T14:55:44.421Z,99495.31
2023-02-01T14:58:33.849Z,99500.59
2023-02-01T15:01:02.647Z,99505.34
2023-02-01T15:03:30.215Z,99491.31
2023-02-01T15:05:58.710Z,99504.53
2023-02-01T15:08:29.547Z,99499.25
2023-02-01T15:11:00.811Z,99506.72
2023-02-01T15:13:29.317Z,99508.66
2023-02-01T15:16:10.133Z,99500.13
2023-02-01T15:18:37.695Z,99509.59
2023-02-01T15:21:27.381Z,99515.09
2023-02-01T15:24:10.759Z,99518.53
2023-02-01T15:26:37.794Z,99517.81
2023-02-01T15:29:05.115Z,99523.53
2023-02-01T15:31:34.103Z,99533.00
2023-02-01T15:34:01.400Z,99518.75
2023-02-01T15:36:30.071Z,99519.22
2023-02-01T15:39:12.979Z,99518.19
2023-02-01T15:41:40.481Z,99516.94
2023-02-01T15:44:23.483Z,99526.19
2023-02-01T15:46:52.034Z,99512.66
2023-02-01T15:49:29.964Z,99517.91
2023-02-01T15:51:57.927Z,99526.34
2023-02-01T15:54:45.620Z,99514.56
2023-02-01T15:57:13.432Z,99535.75
2023-02-01T15:59:45.536Z,99523.25
2023-02-01T16:02:33.278Z,99523.78
2023-02-01T16:05:00.791Z,99528.00
2023-02-01T16:07:32.564Z,99529.25
2023-02-01T16:10:07.369Z,99539.81
2023-02-01T16:12:39.176Z,99542.34
2023-02-01T16:15:06.910Z,99536.84
2023-02-01T16:17:34.462Z,99552.66
2023-02-01T16:20:01.959Z,99558.66
2023-02-01T16:22:29.388Z,99562.16
2023-02-01T16:24:56.860Z,99567.88
2023-02-01T16:27:24.388Z,99568.63
2023-02-01T16:29:52.342Z,99554.41
2023-02-01T16:32:22.216Z,99572.13
2023-02-01T16:34:51.147Z,99569.16
2023-02-01T16:37:21.177Z,99571.44
2023-02-01T16:39:51.653Z,99570.66
2023-02-01T16:42:19.090Z,99573.41
2023-02-01T16:44:46.502Z,99573.91
2023-02-01T16:47:23.441Z,99576.63
2023-02-01T16:49:53.687Z,99582.88
2023-02-01T16:52:22.075Z,99579.09
2023-02-01T16:54:50.157Z,99571.34
2023-02-01T16:57:19.218Z,99578.03
2023-02-01T16:59:49.211Z,99563.81
2023-02-01T17:02:23.414Z,99567.84
2023-02-01T17:04:51.060Z,99575.06
2023-02-01T17:07:19.850Z,99556.81
2023-02-01T17:09:50.990Z,99558.06
2023-02-01T17:12:22.757Z,99554.28
2023-02-01T17:14:51.468Z,99541.75
2023-02-01T17:17:32.774Z,99548.25
2023-02-01T17:20:08.434Z,99537.03
2023-02-01T17:22:35.936Z,99528.84
2023-02-01T17:25:06.263Z,99525.09
2023-02-01T17:27:34.439Z,99520.09
2023-02-01T17:30:04.615Z,99534.06
2023-02-01T17:32:31.990Z,99523.56
2023-02-01T17:34:59.966Z,99528.03
2023-02-01T17:37:29.391Z,99517.53
2023-02-01T17:39:59.227Z,99521.56
2023-02-01T17:42:27.454Z,99531.84
2023-02-01T17:45:00.742Z,99540.84
2023-02-01T17:47:28.743Z,99524.66
2023-02-01T17:49:57.785Z,99533.38
2023-02-01T17:52:26.179Z,99530.38
2023-02-01T17:54:55.822Z,99528.13
2023-02-01T17:57:23.347Z,99537.84
2023-02-01T17:59:50.963Z,99530.09
2023-02-01T18:02:23.548Z,99532.34
2023-02-01T18:04:52.607Z,99524.66
2023-02-01T18:07:20.567Z,99520.19
2023-02-01T18:09:48.490Z,99512.94
2023-02-01T18:12:19.889Z,99512.66
2023-02-01T18:14:50.018Z,99511.94
2023-02-01T18:17:17.692Z,99513.41
2023-02-01T18:19:45.832Z,99513.66
2023-02-01T18:22:19.076Z,99510.16
2023-02-01T18:24:47.372Z,99511.91
2023-02-01T18:27:15.695Z,99517.16
2023-02-01T18:29:43.933Z,99516.41
2023-02-01T18:32:11.904Z,99521.13
2023-02-01T18:34:42.446Z,99529.88
2023-02-01T18:37:10.281Z,99518.63
2023-02-01T18:39:40.505Z,99516.09
2023-02-01T18:42:10.940Z,99515.56
2023-02-01T18:44:38.593Z,99527.94
2023-02-01T18:47:06.305Z,99524.91
2023-02-01T18:49:37.743Z,99526.78
2023-02-01T18:52:08.147Z,99518.72
2023-02-01T18:54:36.973Z,99522.25
2023-02-01T18:57:09.020Z,99516.81
2023-02-01T18:59:37.110Z,99507.59
2023-02-01T19:02:05.392Z,99518.41
2023-02-01T19:04:34.320Z,99513.94
2023-02-01T19:07:03.040Z,99513.22
2023-02-01T19:09:32.686Z,99508.00
2023-02-01T19:12:00.544Z,99504.25
2023-02-01T19:14:28.647Z,99496.06
2023-02-01T19:16:58.777Z,99491.34
2023-02-01T19:19:28.558Z,99494.81
2023-02-01T19:21:59.425Z,99492.88
2023-02-01T19:24:28.294Z,99488.59
2023-02-01T19:26:59.172Z,99483.84
2023-02-01T19:29:34.063Z,99486.84
2023-02-01T19:32:01.717Z,99486.09
2023-02-01T19:34:33.100Z,99474.59
2023-02-01T19:37:01.096Z,99481.03
2023-02-01T19:39:29.066Z,99481.81
2023-02-01T19:41:58.437Z,99486.31
2023-02-01T19:44:28.683Z,99482.34
2023-02-01T19:46:57.071Z,99467.81
2023-02-01T19:49:25.343Z,99463.84
2023-02-01T19:51:53.516Z,99471.09
2023-02-01T19:54:25.216Z,99473.06
2023-02-01T19:56:56.119Z,99469.59
2023-02-01T19:59:24.397Z,99464.16
2023-02-01T20:01:53.583Z,99465.44
2023-02-01T20:04:22.350Z,99457.19
2023-02-01T20:06:50.788Z,99463.66
2023-02-01T20:09:20.718Z,99463.19
2023-02-01T20:11:49.464Z,99455.69
2023-02-01T20:14:20.742Z,99453.44
2023-02-01T20:16:49.095Z,99456.22
2023-02-01T20:19:17.814Z,99460.94
2023-02-01T20:21:49.539Z,99471.69
2023-02-01T20:24:18.241Z,99474.97
2023-02-01T20:26:53.255Z,99460.78
2023-02-01T20:29:23.533Z,99458.28
2023-02-01T20:31:52.814Z,99451.50
2023-02-01T20:34:24.401Z,99449.25
2023-02-01T20:36:52.064Z,99448.75
2023-02-01T20:39:19.939Z,99457.47
2023-02-01T20:41:48.329Z,99447.72
2023-02-01T20:44:19.422Z,99453.72
2023-02-01T20:46:49.952Z,99440.50
2023-02-01T20:49:18.392Z,99441.22
2023-02-01T20:51:47.661Z,99439.47
2023-02-01T20:54:16.911Z,99438.25
2023-02-01T20:56:44.411Z,99431.50
2023-02-01T20:59:13.886Z,99427.72
2023-02-01T21:01:53.987Z,99431.22
2023-02-01T21:04:25.410Z,99422.47
2023-02-01T21:06:58.173Z,99411.50
2023-02-01T21:09:27.923Z,99411.75
2023-02-01T21:11:55.591Z,99403.53
2023-02-01T21:14:25.800Z,99399.78
2023-02-01T21:16:53.403Z,99392.03
2023-02-01T21:19:22.760Z,99387.56
2023-02-01T21:21:50.429Z,99394.28
2023-02-01T21:24:18.102Z,99394.53
2023-02-01T21:26:45.679Z,99388.03
2023-02-01T21:29:16.662Z,99389.53
2023-02-01T21:31:43.931Z,99391.53
2023-02-01T21:34:11.903Z,99372.09
2023-02-01T21:36:39.144Z,99369.13
2023-02-01T21:39:08.041Z,99376.63
2023-02-01T21:41:55.221Z,99380.13
2023-02-01T21:44:23.092Z,99364.41
2023-02-01T21:46:50.343Z,99356.41
2023-02-01T21:49:18.348Z,99345.91
2023-02-01T21:51:47.816Z,99353.41
2023-02-01T21:54:17.536Z,99360.66
2023-02-01T21:56:44.596Z,99370.16
2023-02-01T21:59:14.307Z,99365.91
2023-02-01T22:01:44.778Z,99379.13
2023-02-01T22:04:12.115Z,99369.66
2023-02-01T22:06:41.532Z,99361.66
2023-02-01T22:09:14.845Z,99368.38
2023-02-01T22:11:41.745Z,99352.66
2023-02-01T22:14:09.550Z,99361.66
2023-02-01T22:16:36.552Z,99354.91
2023-02-01T22:19:03.948Z,99363.69
2023-02-01T22:21:30.830Z,99379.94
2023-02-01T22:23:59.502Z,99368.66
2023-02-01T22:26:27.252Z,99379.91
2023-02-01T22:28:55.317Z,99373.66
2023-02-01T22:31:22.979Z,99378.91
2023-02-01T22:33:50.744Z,99366.16
2023-02-01T22:36:18.161Z,99336.94
2023-02-01T22:38:48.688Z,99349.69
2023-02-01T22:41:15.622Z,99353.66
2023-02-01T22:43:43.172Z,99375.16
2023-02-01T22:46:15.213Z,99410.41
2023-02-01T22:48:43.526Z,99418.38
2023-02-01T22:51:20.981Z,99437.34
2023-02-01T22:53:48.561Z,99482.28
2023-02-01T22:56:17.028Z,99509.13
2023-02-01T22:58:44.447Z,99489.19
2023-02-01T23:01:12.561Z,99496.50
2023-02-01T23:03:40.321Z,99483.28
2023-02-01T23:06:10.662Z,99480.31
2023-02-01T23:08:40.851Z,99477.19
2023-02-01T23:11:09.713Z,99486.88
2023-02-01T23:13:38.977Z,99484.34
2023-02-01T23:16:07.323Z,99491.38
2023-02-01T23:18:34.574Z,99494.84
2023-02-01T23:21:05.486Z,99504.47
2023-02-01T23:23:32.991Z,99460.19
2023-02-01T23:26:00.497Z,99429.00
2023-02-01T23:28:28.310Z,99465.03
2023-02-01T23:30:55.631Z,99493.28
2023-02-01T23:33:24.008Z,99490.94
2023-02-01T23:35:54.958Z,99506.03
2023-02-01T23:38:22.469Z,99479.53
2023-02-01T23:40:51.154Z,99485.38
2023-02-01T23:43:39.569Z,99482.19
2023-02-01T23:46:06.502Z,99480.88
2023-02-01T23:48:33.805Z,99504.59
2023-02-01T23:51:00.757Z,99517.63
2023-02-01T23:53:27.964Z,99522.59
2023-02-01T23:55:54.914Z,99536.69
2023-02-01T23:58:22.735Z,99536.94
